Wilmington, Ohio
Current Conditions -  °F | °C
As of 9:54 PM on Friday 21 Nov 2014 (Local Time) from KILN Reporting Station
Clear Clear  
Wind Chill: 10°   Ceiling: Unl
Heat Index: 17°   Visibility: 10mi
Dew Point: 10°   Wind: 5mph
Humidity: 74%   Direction: 130°SE
Pressure: 30.4"   Gusts: NA
Location:  39.45°N, 83.83°W
Report Text: KILN 220254Z AUTO 13004KT 10SM CLR M08/M12 A3040 RMK AO2 SLP334 T10831122 56015
Loading
Personal Weather Stations






























Interactive Weather Map New forecast layout! Learn more

10-Day Weather Forecast

Advertisements
Track Severe Weather on mobile